createdAt,value
2023-01-13T00:01:49.120Z,8.80
2023-01-13T00:04:17.189Z,6.70
2023-01-13T00:06:45.470Z,4.90
2023-01-13T00:09:13.643Z,4.40
2023-01-13T00:12:01.030Z,5.30
2023-01-13T00:14:30.370Z,4.80
2023-01-13T00:16:58.470Z,4.60
2023-01-13T00:19:26.609Z,6.30
2023-01-13T00:21:55.104Z,5.30
2023-01-13T00:24:23.368Z,6.40
2023-01-13T00:26:52.970Z,6.00
2023-01-13T00:29:21.151Z,7.20
2023-01-13T00:31:50.137Z,5.10
2023-01-13T00:34:18.419Z,5.10
2023-01-13T00:36:49.253Z,5.60
2023-01-13T00:39:17.253Z,6.10
2023-01-13T00:42:04.365Z,4.20
2023-01-13T00:44:51.411Z,6.00
2023-01-13T00:47:19.525Z,5.80
2023-01-13T00:49:47.595Z,4.60
2023-01-13T00:52:16.390Z,4.90
2023-01-13T00:54:49.287Z,6.00
2023-01-13T00:57:19.803Z,7.40
2023-01-13T00:59:49.655Z,4.80
2023-01-13T01:02:18.067Z,5.40
2023-01-13T01:04:46.427Z,5.00
2023-01-13T01:07:14.468Z,6.60
2023-01-13T01:09:42.609Z,5.60
2023-01-13T01:12:10.833Z,4.10
2023-01-13T01:14:38.857Z,6.80
2023-01-13T01:17:07.035Z,5.90
2023-01-13T01:19:37.558Z,5.20
2023-01-13T01:22:05.708Z,5.60
2023-01-13T01:24:33.915Z,4.40
2023-01-13T01:27:03.943Z,5.80
2023-01-13T01:29:32.100Z,5.10
2023-01-13T01:32:00.163Z,5.10
2023-01-13T01:34:28.240Z,4.60
2023-01-13T01:36:56.311Z,4.60
2023-01-13T01:39:24.457Z,5.20
2023-01-13T01:42:11.702Z,3.40
2023-01-13T01:44:42.644Z,4.70
2023-01-13T01:47:14.614Z,5.20
2023-01-13T01:49:44.351Z,7.90
2023-01-13T01:52:17.024Z,4.30
2023-01-13T01:55:10.724Z,4.20
2023-01-13T01:57:45.738Z,5.00
2023-01-13T02:00:32.683Z,4.50
2023-01-13T02:03:01.570Z,4.60
2023-01-13T02:05:29.755Z,5.60
2023-01-13T02:08:00.070Z,4.80
2023-01-13T02:10:34.426Z,5.20
2023-01-13T02:13:06.819Z,5.00
2023-01-13T02:16:15.485Z,3.90
2023-01-13T02:18:43.997Z,5.40
2023-01-13T02:21:36.336Z,6.10
2023-01-13T02:24:54.584Z,4.30
2023-01-13T02:27:51.124Z,4.00
2023-01-13T02:31:06.412Z,3.40
2023-01-13T02:33:42.367Z,4.80
2023-01-13T02:36:43.912Z,4.60
2023-01-13T02:39:23.778Z,5.00
2023-01-13T02:42:24.192Z,4.10
2023-01-13T02:45:02.143Z,5.00
2023-01-13T02:47:36.055Z,4.20
2023-01-13T02:50:08.971Z,3.40
2023-01-13T02:53:12.215Z,4.30
2023-01-13T02:55:48.734Z,4.90
2023-01-13T02:58:21.334Z,4.00
2023-01-13T03:03:18.013Z,3.60
2023-01-13T03:05:52.068Z,3.20
2023-01-13T03:08:39.606Z,3.70
2023-01-13T03:11:14.244Z,3.20
2023-01-13T03:14:19.287Z,3.80
2023-01-13T03:17:20.634Z,3.40
2023-01-13T03:22:55.795Z,3.70
2023-01-13T03:25:31.919Z,3.80
2023-01-13T03:28:08.728Z,3.40
2023-01-13T03:31:03.706Z,2.60
2023-01-13T03:33:39.655Z,3.10
2023-01-13T03:36:11.552Z,2.40
2023-01-13T03:38:45.049Z,3.00
2023-01-13T03:41:19.128Z,2.10
2023-01-13T03:44:22.476Z,3.10
2023-01-13T03:46:56.388Z,2.00
2023-01-13T03:49:30.412Z,2.50
2023-01-13T03:52:04.594Z,2.40
2023-01-13T03:54:38.397Z,3.00
2023-01-13T03:57:12.308Z,3.30
2023-01-13T03:59:46.980Z,2.40
2023-01-13T04:02:36.438Z,2.20
2023-01-13T04:05:09.450Z,2.60
2023-01-13T04:08:16.921Z,1.60
2023-01-13T04:10:49.341Z,2.70
2023-01-13T04:13:39.959Z,2.10
2023-01-13T04:16:11.329Z,3.60
2023-01-13T04:18:40.032Z,2.70
2023-01-13T04:21:08.329Z,4.30
2023-01-13T04:23:36.949Z,3.70
2023-01-13T04:26:05.124Z,1.80
2023-01-13T04:28:35.081Z,2.80
2023-01-13T04:31:03.586Z,2.70
2023-01-13T04:33:31.700Z,2.00
2023-01-13T04:35:59.758Z,2.20
2023-01-13T04:38:30.099Z,1.50
2023-01-13T04:40:58.271Z,1.70
2023-01-13T04:43:26.308Z,1.50
2023-01-13T04:45:54.578Z,2.20
2023-01-13T04:48:22.666Z,2.30
2023-01-13T04:50:50.659Z,3.00
2023-01-13T04:53:18.822Z,1.60
2023-01-13T04:55:48.042Z,1.20
2023-01-13T04:58:16.092Z,1.40
2023-01-13T05:00:44.369Z,3.00
2023-01-13T05:03:12.444Z,1.60
2023-01-13T05:05:59.356Z,1.70
2023-01-13T05:08:27.426Z,1.10
2023-01-13T05:10:55.706Z,3.40
2023-01-13T05:13:42.625Z,3.00
2023-01-13T05:16:48.273Z,3.40
2023-01-13T05:19:16.839Z,2.50
2023-01-13T05:22:03.488Z,4.00
2023-01-13T05:24:57.812Z,2.60
2023-01-13T05:27:26.225Z,1.80
2023-01-13T05:29:55.145Z,2.40
2023-01-13T05:32:24.002Z,3.10
2023-01-13T05:34:52.071Z,2.20
2023-01-13T05:37:20.266Z,2.20
2023-01-13T05:40:06.671Z,2.00
2023-01-13T05:42:53.325Z,1.20
2023-01-13T05:45:21.631Z,1.70
2023-01-13T05:47:49.805Z,3.40
2023-01-13T05:50:18.185Z,3.10
2023-01-13T05:52:46.253Z,3.50
2023-01-13T05:55:16.460Z,2.40
2023-01-13T05:57:44.884Z,3.40
2023-01-13T06:00:13.520Z,2.60
2023-01-13T06:03:00.272Z,3.10
2023-01-13T06:05:33.344Z,2.80
2023-01-13T06:08:03.684Z,3.50
2023-01-13T06:10:50.461Z,3.20
2023-01-13T06:13:18.748Z,2.90
2023-01-13T06:15:46.894Z,2.10
2023-01-13T06:18:15.122Z,2.30
2023-01-13T06:20:43.271Z,2.50
2023-01-13T06:23:12.067Z,3.10
2023-01-13T06:25:48.020Z,3.80
2023-01-13T06:28:16.288Z,2.80
2023-01-13T06:30:51.341Z,2.50
2023-01-13T06:33:26.825Z,3.00
2023-01-13T06:36:03.024Z,2.00
2023-01-13T06:38:37.556Z,2.60
2023-01-13T06:41:08.188Z,3.20
2023-01-13T06:43:36.568Z,1.70
2023-01-13T06:46:05.124Z,2.30
2023-01-13T06:48:35.692Z,1.80
2023-01-13T06:51:08.153Z,1.60
2023-01-13T06:53:36.521Z,3.90
2023-01-13T06:56:05.027Z,1.90
2023-01-13T06:58:52.142Z,1.70
2023-01-13T07:01:20.300Z,1.60
2023-01-13T07:03:48.483Z,1.20
2023-01-13T07:08:48.918Z,3.80
2023-01-13T07:11:17.030Z,3.80
2023-01-13T07:14:04.112Z,3.30
2023-01-13T07:16:32.405Z,4.20
2023-01-13T07:19:23.895Z,4.20
2023-01-13T07:21:52.815Z,6.50
2023-01-13T07:24:20.962Z,4.90
2023-01-13T07:26:51.388Z,5.70
2023-01-13T07:29:19.987Z,5.80
2023-01-13T07:31:50.139Z,4.10
2023-01-13T07:34:18.678Z,4.30
2023-01-13T07:36:47.050Z,5.50
2023-01-13T07:39:15.072Z,3.70
2023-01-13T07:42:01.729Z,3.50
2023-01-13T07:44:30.060Z,3.80
2023-01-13T07:46:58.179Z,4.00
2023-01-13T07:49:26.194Z,4.70
2023-01-13T07:51:54.536Z,4.70
2023-01-13T07:54:39.115Z,3.20
2023-01-13T07:57:26.968Z,4.20
2023-01-13T07:59:55.552Z,2.80
2023-01-13T08:02:24.287Z,3.00
2023-01-13T08:04:53.380Z,3.80
2023-01-13T08:07:21.552Z,3.10
2023-01-13T08:09:49.842Z,4.70
2023-01-13T08:12:38.654Z,4.60
2023-01-13T08:15:10.065Z,5.40
2023-01-13T08:17:38.282Z,5.10
2023-01-13T08:20:07.313Z,5.30
2023-01-13T08:22:35.486Z,4.60
2023-01-13T08:25:04.191Z,4.80
2023-01-13T08:27:50.987Z,6.00
2023-01-13T08:30:19.758Z,4.30
2023-01-13T08:32:49.683Z,4.10
2023-01-13T08:35:18.783Z,2.70
2023-01-13T08:37:48.613Z,3.50
2023-01-13T08:40:19.110Z,3.90
2023-01-13T08:42:48.685Z,2.40
2023-01-13T08:45:17.099Z,4.00
2023-01-13T08:47:45.176Z,5.80
2023-01-13T08:50:13.663Z,4.00
2023-01-13T08:52:42.138Z,6.40
2023-01-13T08:55:11.423Z,11.60
2023-01-13T08:57:39.566Z,8.90
2023-01-13T09:02:41.221Z,5.10
2023-01-13T09:05:10.910Z,6.00
2023-01-13T09:07:39.782Z,5.50
2023-01-13T09:10:26.635Z,6.90
2023-01-13T09:13:12.619Z,3.80
2023-01-13T09:15:59.880Z,4.10
2023-01-13T09:18:27.969Z,3.30
2023-01-13T09:20:56.250Z,4.80
2023-01-13T09:23:26.374Z,2.90
2023-01-13T09:25:54.419Z,3.90
2023-01-13T09:28:22.512Z,3.70
2023-01-13T09:30:50.663Z,3.00
2023-01-13T09:33:37.608Z,3.20
2023-01-13T09:36:06.446Z,2.80
2023-01-13T09:38:34.561Z,3.60
2023-01-13T09:41:23.427Z,7.10
2023-01-13T09:43:57.772Z,4.60
2023-01-13T09:46:49.908Z,4.00
2023-01-13T09:49:33.586Z,6.70
2023-01-13T09:52:15.330Z,5.60
2023-01-13T09:55:05.200Z,3.90
2023-01-13T09:57:52.618Z,6.30
2023-01-13T10:00:44.948Z,8.80
2023-01-13T10:03:26.166Z,6.20
2023-01-13T10:06:22.475Z,5.00
2023-01-13T10:08:51.411Z,7.10
2023-01-13T10:11:40.401Z,6.30
2023-01-13T10:14:42.586Z,6.50
2023-01-13T10:17:29.812Z,5.50
2023-01-13T10:20:18.372Z,4.40
2023-01-13T10:22:53.964Z,3.50
2023-01-13T10:25:36.415Z,5.00
2023-01-13T10:28:13.614Z,5.70
2023-01-13T10:30:46.896Z,4.40
2023-01-13T10:33:22.015Z,4.50
2023-01-13T10:36:23.192Z,5.30
2023-01-13T10:41:27.891Z,4.30
2023-01-13T10:44:02.336Z,4.10
2023-01-13T10:46:49.867Z,6.00
2023-01-13T10:49:50.769Z,4.90
2023-01-13T10:52:28.719Z,6.60
2023-01-13T10:54:58.114Z,5.80
2023-01-13T10:57:27.838Z,4.80
2023-01-13T11:00:30.308Z,6.50
2023-01-13T11:03:16.784Z,4.30
2023-01-13T11:05:54.103Z,6.40
2023-01-13T11:08:25.634Z,7.00
2023-01-13T11:10:57.762Z,5.80
2023-01-13T11:14:03.774Z,6.10
2023-01-13T11:16:33.243Z,3.90
2023-01-13T11:19:14.203Z,4.10
2023-01-13T11:22:09.569Z,5.90
2023-01-13T11:24:50.786Z,5.10
2023-01-13T11:27:49.583Z,4.80
2023-01-13T11:30:52.553Z,6.70
2023-01-13T11:33:30.821Z,6.10
2023-01-13T11:36:06.892Z,6.00
2023-01-13T11:38:52.067Z,3.70
2023-01-13T11:41:41.736Z,3.70
2023-01-13T11:44:10.219Z,4.40
2023-01-13T11:46:43.635Z,3.40
2023-01-13T11:49:29.512Z,4.20
2023-01-13T11:52:12.938Z,2.20
2023-01-13T11:54:58.412Z,3.90
2023-01-13T11:57:51.673Z,4.10
2023-01-13T12:00:28.990Z,5.30
2023-01-13T12:03:23.397Z,4.90
2023-01-13T12:06:13.640Z,4.70
2023-01-13T12:08:58.017Z,9.60
2023-01-13T12:12:15.040Z,7.70
2023-01-13T12:15:06.441Z,4.60
2023-01-13T12:18:08.200Z,5.00
2023-01-13T12:21:24.513Z,5.60
2023-01-13T12:24:05.585Z,5.70
2023-01-13T12:26:39.021Z,3.40
2023-01-13T12:29:13.207Z,4.40
2023-01-13T12:31:43.473Z,4.50
2023-01-13T12:34:33.297Z,3.80
2023-01-13T12:37:07.705Z,3.60
2023-01-13T12:40:16.619Z,3.80
2023-01-13T12:43:06.927Z,3.50
2023-01-13T12:45:35.338Z,5.20
2023-01-13T12:48:05.235Z,4.50
2023-01-13T12:50:37.674Z,9.60
2023-01-13T12:53:35.613Z,3.90
2023-01-13T12:56:30.806Z,4.20
2023-01-13T12:59:17.794Z,3.60
2023-01-13T13:01:48.785Z,5.00
2023-01-13T13:04:41.586Z,4.30
2023-01-13T13:07:14.923Z,6.60
2023-01-13T13:09:53.246Z,10.80
2023-01-13T13:12:49.374Z,8.50
2023-01-13T13:15:29.576Z,6.30
2023-01-13T13:18:21.097Z,6.60
2023-01-13T13:20:58.884Z,7.50
2023-01-13T13:23:48.125Z,7.00
2023-01-13T13:26:25.437Z,7.60
2023-01-13T13:29:14.918Z,7.40
2023-01-13T13:31:49.171Z,6.60
2023-01-13T13:34:32.381Z,5.20
2023-01-13T13:37:19.981Z,4.30
2023-01-13T13:40:07.308Z,4.80
2023-01-13T13:43:06.209Z,5.30
2023-01-13T13:45:53.274Z,5.10
2023-01-13T13:48:30.745Z,5.70
2023-01-13T13:51:41.230Z,6.90
2023-01-13T13:54:14.013Z,10.60
2023-01-13T13:56:45.611Z,7.70
2023-01-13T13:59:18.610Z,11.30
2023-01-13T14:01:53.819Z,6.80
2023-01-13T14:04:27.579Z,10.30
2023-01-13T14:07:05.427Z,5.40
2023-01-13T14:09:45.972Z,8.30
2023-01-13T14:12:20.567Z,5.50
2023-01-13T14:14:50.034Z,9.50
2023-01-13T14:17:38.671Z,6.00
2023-01-13T14:20:14.906Z,9.30
2023-01-13T14:22:52.275Z,7.00
2023-01-13T14:25:32.700Z,7.90
2023-01-13T14:28:20.890Z,15.20
2023-01-13T14:31:09.552Z,16.40
2023-01-13T14:33:50.511Z,11.80
2023-01-13T14:36:24.248Z,14.00
2023-01-13T14:39:05.388Z,10.20
2023-01-13T14:41:36.126Z,12.40
2023-01-13T14:44:36.826Z,10.50
2023-01-13T14:47:21.111Z,12.90
2023-01-13T14:53:02.509Z,14.00
2023-01-13T14:55:38.673Z,12.30
2023-01-13T14:58:38.275Z,9.60
2023-01-13T15:01:29.066Z,17.10
2023-01-13T15:04:16.996Z,13.10
2023-01-13T15:06:51.511Z,14.20
2023-01-13T15:09:33.505Z,15.20
2023-01-13T15:12:35.984Z,14.60
2023-01-13T15:15:25.262Z,10.50
2023-01-13T15:17:53.883Z,10.60
2023-01-13T15:20:24.088Z,15.90
2023-01-13T15:23:11.288Z,11.90
2023-01-13T15:25:43.784Z,16.40
2023-01-13T15:28:21.400Z,16.60
2023-01-13T15:30:53.485Z,16.30
2023-01-13T15:36:20.913Z,18.60
2023-01-13T15:38:49.608Z,15.90
2023-01-13T15:41:18.003Z,12.20
2023-01-13T15:44:09.191Z,13.50
2023-01-13T15:46:40.356Z,13.10
2023-01-13T15:49:35.060Z,15.60
2023-01-13T15:52:18.050Z,11.70
2023-01-13T15:54:46.221Z,14.60
2023-01-13T15:57:29.557Z,15.10
2023-01-13T16:00:20.341Z,13.20
2023-01-13T16:02:54.571Z,12.90
2023-01-13T16:05:22.668Z,15.40
2023-01-13T16:07:51.159Z,23.10
2023-01-13T16:10:25.770Z,19.60
2023-01-13T16:12:55.971Z,13.50
2023-01-13T16:15:25.100Z,13.50
2023-01-13T16:17:59.954Z,9.70
2023-01-13T16:20:28.116Z,14.90
2023-01-13T16:22:56.264Z,12.90
2023-01-13T16:25:26.998Z,10.70
2023-01-13T16:28:26.676Z,16.70
2023-01-13T16:30:54.916Z,11.20
2023-01-13T16:33:23.107Z,11.50
2023-01-13T16:36:10.288Z,10.70
2023-01-13T16:38:39.398Z,11.90
2023-01-13T16:41:07.869Z,14.80
2023-01-13T16:43:36.474Z,18.90
2023-01-13T16:46:25.978Z,20.30
2023-01-13T16:48:57.402Z,23.50
2023-01-13T16:51:25.595Z,15.70
2023-01-13T16:53:53.815Z,17.60
2023-01-13T16:56:31.193Z,15.70
2023-01-13T16:59:13.757Z,13.40
2023-01-13T17:01:44.911Z,14.50
2023-01-13T17:04:21.787Z,12.50
2023-01-13T17:07:08.486Z,11.10
2023-01-13T17:12:27.859Z,13.10
2023-01-13T17:15:16.882Z,10.50
2023-01-13T17:17:52.025Z,9.80
2023-01-13T17:20:38.489Z,13.00
2023-01-13T17:23:25.603Z,13.60
2023-01-13T17:25:54.886Z,15.60
2023-01-13T17:28:23.068Z,10.80
2023-01-13T17:30:51.556Z,14.10
2023-01-13T17:33:19.618Z,13.90
2023-01-13T17:35:47.809Z,14.30
2023-01-13T17:38:16.629Z,10.90
2023-01-13T17:40:44.710Z,12.90
2023-01-13T17:43:12.753Z,13.90
2023-01-13T17:45:41.864Z,12.50
2023-01-13T17:48:10.127Z,15.30
2023-01-13T17:50:38.808Z,17.60
2023-01-13T17:53:07.074Z,20.40
2023-01-13T17:55:35.441Z,17.60
2023-01-13T17:58:03.510Z,13.60
2023-01-13T18:00:31.886Z,12.50
2023-01-13T18:02:59.979Z,15.30
2023-01-13T18:05:28.646Z,12.10
2023-01-13T18:08:01.220Z,11.50
2023-01-13T18:10:29.700Z,8.20
2023-01-13T18:12:57.725Z,11.00
2023-01-13T18:15:48.985Z,8.50
2023-01-13T18:18:17.270Z,11.20
2023-01-13T18:21:04.684Z,9.60
2023-01-13T18:24:01.898Z,13.30
2023-01-13T18:26:49.260Z,9.20
2023-01-13T18:29:17.335Z,12.00
2023-01-13T18:32:04.345Z,10.10
2023-01-13T18:34:36.953Z,9.10
2023-01-13T18:37:06.972Z,10.90
2023-01-13T18:39:37.569Z,14.60
2023-01-13T18:42:26.514Z,10.10
2023-01-13T18:45:13.546Z,11.70
2023-01-13T18:47:46.660Z,13.20
2023-01-13T18:50:35.038Z,10.70
2023-01-13T18:53:03.574Z,13.50
2023-01-13T18:55:31.849Z,14.20
2023-01-13T18:58:00.545Z,18.70
2023-01-13T19:00:47.237Z,19.70
2023-01-13T19:03:29.542Z,21.20
2023-01-13T19:06:07.590Z,19.30
2023-01-13T19:08:36.777Z,16.60
2023-01-13T19:11:08.192Z,12.70
2023-01-13T19:13:37.090Z,14.30
2023-01-13T19:16:23.799Z,11.10
2023-01-13T19:18:51.883Z,11.90
2023-01-13T19:21:20.248Z,11.30
2023-01-13T19:23:48.619Z,12.60
2023-01-13T19:26:16.667Z,13.80
2023-01-13T19:28:44.762Z,10.70
2023-01-13T19:31:12.968Z,12.40
2023-01-13T19:33:41.155Z,9.80
2023-01-13T19:36:10.507Z,12.30
2023-01-13T19:38:38.570Z,10.10
2023-01-13T19:41:43.966Z,10.50
2023-01-13T19:44:31.046Z,10.90
2023-01-13T19:46:59.068Z,13.90
2023-01-13T19:49:30.400Z,10.30
2023-01-13T19:51:58.749Z,12.10
2023-01-13T19:54:27.030Z,11.00
2023-01-13T19:57:15.286Z,13.40
2023-01-13T19:59:43.350Z,12.20
2023-01-13T20:02:28.436Z,8.20
2023-01-13T20:04:58.355Z,10.40
2023-01-13T20:07:29.000Z,10.10
2023-01-13T20:09:57.740Z,16.30
2023-01-13T20:12:26.563Z,9.10
2023-01-13T20:14:55.004Z,12.10
2023-01-13T20:17:25.741Z,10.30
2023-01-13T20:19:54.017Z,11.30
2023-01-13T20:22:24.445Z,9.50
2023-01-13T20:24:55.476Z,8.70
2023-01-13T20:27:43.729Z,10.90
2023-01-13T20:30:16.208Z,11.20
2023-01-13T20:35:13.170Z,9.80
2023-01-13T20:38:00.283Z,11.80
2023-01-13T20:40:28.767Z,10.70
2023-01-13T20:42:57.241Z,8.70
2023-01-13T20:45:44.363Z,10.90
2023-01-13T20:48:12.346Z,7.30
2023-01-13T20:50:40.379Z,10.50
2023-01-13T20:53:09.186Z,8.70
2023-01-13T20:55:39.901Z,10.70
2023-01-13T20:58:07.877Z,18.70
2023-01-13T21:00:36.123Z,11.20
2023-01-13T21:03:04.451Z,10.30
2023-01-13T21:05:35.075Z,8.30
2023-01-13T21:08:03.809Z,9.20
2023-01-13T21:10:32.083Z,12.40
2023-01-13T21:13:23.389Z,9.40
2023-01-13T21:15:52.454Z,8.50
2023-01-13T21:18:39.329Z,10.80
2023-01-13T21:21:14.001Z,9.50
2023-01-13T21:23:44.407Z,11.70
2023-01-13T21:26:12.689Z,12.40
2023-01-13T21:28:40.793Z,9.00
2023-01-13T21:31:10.163Z,11.20
2023-01-13T21:33:38.746Z,14.50
2023-01-13T21:36:08.415Z,13.50
2023-01-13T21:38:36.523Z,14.20
2023-01-13T21:41:07.996Z,8.80
2023-01-13T21:43:56.270Z,11.10
2023-01-13T21:46:57.284Z,9.40
2023-01-13T21:49:25.333Z,9.30
2023-01-13T21:51:53.628Z,10.40
2023-01-13T21:54:21.783Z,9.70
2023-01-13T21:57:08.809Z,10.80
2023-01-13T21:59:36.809Z,10.90
2023-01-13T22:02:25.411Z,8.30
2023-01-13T22:04:54.008Z,11.40
2023-01-13T22:07:21.999Z,9.50
2023-01-13T22:09:50.047Z,11.00
2023-01-13T22:12:37.207Z,11.60
2023-01-13T22:15:29.413Z,8.40
2023-01-13T22:17:57.676Z,10.80
2023-01-13T22:20:26.466Z,10.50
2023-01-13T22:22:54.742Z,12.20
2023-01-13T22:25:23.740Z,13.80
2023-01-13T22:28:14.038Z,8.40
2023-01-13T22:30:42.512Z,9.80
2023-01-13T22:33:10.580Z,9.20
2023-01-13T22:35:38.754Z,9.10
2023-01-13T22:38:07.067Z,8.00
2023-01-13T22:40:35.105Z,12.00
2023-01-13T22:43:03.152Z,8.40
2023-01-13T22:45:31.309Z,10.70
2023-01-13T22:47:59.423Z,11.50
2023-01-13T22:50:27.795Z,8.60
2023-01-13T22:52:55.942Z,8.20
2023-01-13T22:55:23.949Z,10.70
2023-01-13T22:57:52.121Z,10.70
2023-01-13T23:00:20.795Z,9.20
2023-01-13T23:02:48.779Z,6.80
2023-01-13T23:05:35.881Z,8.70
2023-01-13T23:08:04.179Z,8.70
2023-01-13T23:10:32.556Z,8.40
2023-01-13T23:13:00.881Z,6.90
2023-01-13T23:15:34.929Z,7.60
2023-01-13T23:18:03.715Z,8.70
2023-01-13T23:20:31.852Z,6.90
2023-01-13T23:22:59.919Z,5.80
2023-01-13T23:25:28.133Z,7.50
2023-01-13T23:27:56.231Z,10.30
2023-01-13T23:30:24.202Z,7.80
2023-01-13T23:32:52.345Z,11.20
2023-01-13T23:35:20.387Z,9.40
2023-01-13T23:37:48.594Z,7.60
2023-01-13T23:40:16.761Z,7.40
2023-01-13T23:42:49.237Z,6.90
2023-01-13T23:45:36.304Z,7.70
2023-01-13T23:48:05.452Z,6.80
2023-01-13T23:50:33.828Z,7.70
2023-01-13T23:53:20.842Z,7.10
2023-01-13T23:55:48.834Z,6.80
2023-01-13T23:58:16.989Z,7.40
